createdAt,value
2022-08-12T00:02:03.250Z,7.10
2022-08-12T00:05:28.679Z,7.10
2022-08-12T00:08:51.750Z,8.05
2022-08-12T00:12:13.120Z,7.45
2022-08-12T00:15:34.665Z,7.68
2022-08-12T00:18:55.908Z,7.60
2022-08-12T00:22:19.255Z,8.38
2022-08-12T00:26:05.482Z,7.80
2022-08-12T00:29:22.441Z,7.00
2022-08-12T00:32:56.604Z,7.82
2022-08-12T00:36:35.431Z,8.10
2022-08-12T00:40:00.583Z,8.52
2022-08-12T00:43:04.773Z,7.88
2022-08-12T00:46:25.868Z,8.13
2022-08-12T00:49:29.732Z,7.43
2022-08-12T00:52:34.038Z,7.20
2022-08-12T00:55:39.739Z,8.05
2022-08-12T00:58:47.777Z,7.75
2022-08-12T01:02:11.562Z,8.20
2022-08-12T01:05:34.009Z,7.50
2022-08-12T01:08:54.805Z,7.47
2022-08-12T01:11:59.227Z,8.30
2022-08-12T01:15:02.181Z,8.20
2022-08-12T01:18:05.789Z,8.07
2022-08-12T01:21:12.637Z,8.10
2022-08-12T01:24:35.015Z,7.30
2022-08-12T01:27:40.558Z,8.25
2022-08-12T01:30:44.240Z,7.82
2022-08-12T01:34:00.759Z,7.53
2022-08-12T01:37:04.090Z,8.13
2022-08-12T01:40:34.535Z,7.50
2022-08-12T01:43:33.394Z,7.78
2022-08-12T01:46:44.807Z,8.27
2022-08-12T01:49:58.340Z,8.38
2022-08-12T01:53:05.650Z,8.15
2022-08-12T01:56:10.450Z,7.82
2022-08-12T01:59:35.791Z,8.35
2022-08-12T02:02:41.006Z,7.53
2022-08-12T02:06:08.627Z,8.20
2022-08-12T02:09:32.669Z,8.15
2022-08-12T02:12:49.321Z,8.25
2022-08-12T02:15:57.641Z,8.13
2022-08-12T02:19:22.857Z,7.82
2022-08-12T02:22:30.693Z,8.27
2022-08-12T02:25:36.548Z,8.20
2022-08-12T02:28:42.094Z,8.30
2022-08-12T02:31:45.924Z,8.25
2022-08-12T02:34:48.418Z,8.05
2022-08-12T02:37:52.561Z,7.97
2022-08-12T02:40:56.125Z,7.95
2022-08-12T02:44:04.982Z,7.85
2022-08-12T02:47:07.848Z,7.68
2022-08-12T02:50:31.673Z,8.02
2022-08-12T02:53:36.505Z,8.13
2022-08-12T02:56:41.001Z,8.13
2022-08-12T02:59:45.014Z,7.82
2022-08-12T03:02:47.791Z,7.88
2022-08-12T03:05:58.368Z,8.77
2022-08-12T03:09:03.813Z,8.07
2022-08-12T03:12:09.615Z,8.27
2022-08-12T03:15:22.238Z,8.13
2022-08-12T03:18:31.006Z,7.55
2022-08-12T03:21:55.418Z,9.07
2022-08-12T03:25:03.811Z,8.13
2022-08-12T03:28:09.376Z,8.80
2022-08-12T03:31:30.073Z,7.78
2022-08-12T03:34:35.411Z,7.43
2022-08-12T03:37:38.216Z,7.13
2022-08-12T03:41:08.358Z,7.50
2022-08-12T03:44:32.307Z,7.82
2022-08-12T03:48:02.168Z,8.05
2022-08-12T03:51:23.650Z,7.43
2022-08-12T03:54:44.788Z,7.85
2022-08-12T03:58:05.837Z,7.35
2022-08-12T04:01:08.382Z,7.70
2022-08-12T04:04:12.187Z,7.75
2022-08-12T04:07:16.166Z,8.10
2022-08-12T04:10:18.844Z,7.53
2022-08-12T04:13:21.659Z,8.00
2022-08-12T04:16:24.096Z,8.13
2022-08-12T04:19:32.666Z,9.23
2022-08-12T04:22:35.673Z,7.70
2022-08-12T04:25:39.419Z,7.90
2022-08-12T04:28:41.870Z,8.25
2022-08-12T04:31:44.311Z,8.05
2022-08-12T04:34:48.138Z,8.00
2022-08-12T04:37:58.825Z,7.68
2022-08-12T04:41:03.399Z,7.50
2022-08-12T04:44:06.353Z,8.25
2022-08-12T04:47:11.622Z,7.30
2022-08-12T04:50:33.907Z,7.72
2022-08-12T04:53:36.813Z,7.30
2022-08-12T04:56:40.461Z,7.53
2022-08-12T04:59:46.851Z,7.93
2022-08-12T05:02:51.173Z,7.30
2022-08-12T05:05:58.398Z,8.43
2022-08-12T05:09:02.066Z,7.50
2022-08-12T05:12:18.114Z,7.65
2022-08-12T05:15:29.356Z,7.82
2022-08-12T05:18:33.202Z,7.95
2022-08-12T05:21:39.236Z,7.50
2022-08-12T05:24:44.632Z,6.90
2022-08-12T05:27:55.321Z,7.72
2022-08-12T05:31:01.887Z,8.15
2022-08-12T05:34:05.744Z,6.90
2022-08-12T05:37:09.700Z,7.03
2022-08-12T05:40:12.614Z,5.97
2022-08-12T05:43:15.048Z,6.05
2022-08-12T05:46:18.034Z,5.43
2022-08-12T05:49:20.469Z,5.65
2022-08-12T05:52:24.376Z,5.15
2022-08-12T05:55:31.358Z,6.05
2022-08-12T05:58:34.914Z,5.40
2022-08-12T06:02:10.149Z,5.35
2022-08-12T06:05:00.387Z,6.10
2022-08-12T06:08:06.332Z,5.97
2022-08-12T06:11:08.862Z,5.20
2022-08-12T06:14:12.334Z,4.70
2022-08-12T06:17:14.829Z,5.43
2022-08-12T06:20:25.896Z,4.85
2022-08-12T06:23:33.882Z,4.68
2022-08-12T06:26:36.507Z,4.70
2022-08-12T06:30:10.146Z,4.10
2022-08-12T06:33:11.661Z,4.00
2022-08-12T06:36:29.306Z,4.50
2022-08-12T06:39:34.103Z,3.92
2022-08-12T06:42:49.023Z,3.58
2022-08-12T06:45:51.431Z,4.10
2022-08-12T06:48:59.379Z,3.95
2022-08-12T06:52:02.155Z,3.55
2022-08-12T06:55:07.443Z,3.70
2022-08-12T06:58:11.139Z,3.08
2022-08-12T07:01:14.814Z,4.30
2022-08-12T07:04:35.935Z,3.55
2022-08-12T07:07:39.169Z,3.55
2022-08-12T07:10:45.401Z,2.90
2022-08-12T07:14:10.243Z,2.97
2022-08-12T07:17:15.537Z,3.03
2022-08-12T07:20:42.644Z,2.78
2022-08-12T07:23:41.770Z,2.97
2022-08-12T07:26:45.556Z,3.00
2022-08-12T07:30:03.548Z,2.90
2022-08-12T07:33:09.506Z,3.00
2022-08-12T07:36:14.049Z,2.50
2022-08-12T07:39:17.279Z,3.03
2022-08-12T07:42:21.078Z,3.00
2022-08-12T07:45:24.562Z,2.60
2022-08-12T07:48:27.371Z,2.75
2022-08-12T07:51:29.870Z,2.80
2022-08-12T07:54:32.344Z,2.67
2022-08-12T07:57:48.966Z,2.95
2022-08-12T08:00:53.139Z,2.50
2022-08-12T08:04:18.706Z,2.60
2022-08-12T08:07:22.303Z,2.47
2022-08-12T08:10:26.293Z,2.35
2022-08-12T08:13:30.110Z,2.38
2022-08-12T08:16:33.631Z,2.25
2022-08-12T08:20:01.992Z,1.92
2022-08-12T08:22:59.564Z,2.15
2022-08-12T08:26:01.999Z,2.15
2022-08-12T08:29:05.903Z,2.13
2022-08-12T08:32:09.832Z,1.90
2022-08-12T08:35:14.824Z,1.95
2022-08-12T08:38:31.880Z,1.70
2022-08-12T08:42:15.317Z,1.80
2022-08-12T08:45:18.494Z,1.70
2022-08-12T08:48:22.236Z,2.85
2022-08-12T08:51:26.349Z,1.83
2022-08-12T08:54:33.427Z,1.60
2022-08-12T08:57:43.611Z,1.70
2022-08-12T09:00:51.603Z,1.90
2022-08-12T09:03:54.036Z,1.80
2022-08-12T09:07:51.928Z,1.98
2022-08-12T09:10:44.897Z,1.63
2022-08-12T09:14:10.144Z,1.55
2022-08-12T09:17:13.828Z,1.83
2022-08-12T09:20:29.409Z,2.17
2022-08-12T09:23:59.825Z,1.73
2022-08-12T09:26:54.535Z,2.00
2022-08-12T09:30:10.185Z,1.90
2022-08-12T09:33:18.790Z,2.22
2022-08-12T09:36:30.980Z,1.55
2022-08-12T09:40:06.285Z,1.40
2022-08-12T09:43:26.586Z,1.80
2022-08-12T09:46:34.672Z,1.55
2022-08-12T09:49:57.905Z,1.88
2022-08-12T09:53:16.342Z,1.60
2022-08-12T10:00:55.917Z,1.63
2022-08-12T10:04:03.655Z,1.65
2022-08-12T10:07:15.049Z,1.70
2022-08-12T10:10:30.499Z,1.50
2022-08-12T10:13:43.129Z,1.80
2022-08-12T10:16:45.763Z,1.63
2022-08-12T10:19:51.882Z,2.42
2022-08-12T10:23:00.929Z,1.50
2022-08-12T10:26:37.889Z,1.85
2022-08-12T10:30:03.331Z,1.42
2022-08-12T10:33:18.311Z,1.92
2022-08-12T10:36:36.274Z,1.38
2022-08-12T10:40:06.807Z,1.60
2022-08-12T10:43:26.629Z,1.35
2022-08-12T10:46:31.406Z,1.90
2022-08-12T10:50:15.807Z,1.35
2022-08-12T10:52:57.172Z,1.30
2022-08-12T10:56:02.197Z,1.25
2022-08-12T10:59:11.123Z,1.92
2022-08-12T11:04:24.118Z,1.60
2022-08-12T11:07:09.012Z,1.63
2022-08-12T11:09:01.542Z,1.40
2022-08-12T11:12:36.619Z,1.48
2022-08-12T11:16:02.807Z,1.63
2022-08-12T11:18:55.500Z,1.25
2022-08-12T11:22:01.398Z,1.50
2022-08-12T11:25:11.128Z,1.63
2022-08-12T11:28:16.146Z,1.70
2022-08-12T11:31:19.772Z,1.45
2022-08-12T11:34:53.168Z,1.50
2022-08-12T11:37:58.857Z,1.30
2022-08-12T11:41:05.629Z,1.60
2022-08-12T11:44:29.180Z,1.33
2022-08-12T11:47:31.671Z,1.45
2022-08-12T11:50:34.175Z,1.60
2022-08-12T11:53:57.319Z,1.30
2022-08-12T11:58:01.231Z,1.20
2022-08-12T12:03:48.698Z,1.27
2022-08-12T12:06:53.165Z,1.40
2022-08-12T12:09:55.863Z,1.60
2022-08-12T12:12:58.302Z,1.33
2022-08-12T12:16:01.943Z,1.33
2022-08-12T12:19:11.224Z,1.33
2022-08-12T12:22:15.805Z,1.50
2022-08-12T12:26:07.393Z,1.30
2022-08-12T12:28:48.504Z,1.30
2022-08-12T12:32:10.850Z,1.50
2022-08-12T12:36:05.983Z,1.10
2022-08-12T12:38:36.956Z,1.00
2022-08-12T12:42:42.968Z,1.15
2022-08-12T12:45:19.413Z,1.05
2022-08-12T12:48:23.667Z,1.30
2022-08-12T12:52:13.297Z,1.10
2022-08-12T12:54:58.481Z,1.10
2022-08-12T12:58:04.556Z,1.38
2022-08-12T13:01:27.769Z,1.33
2022-08-12T13:04:35.063Z,1.20
2022-08-12T13:07:49.280Z,1.33
2022-08-12T13:11:01.547Z,1.10
2022-08-12T13:14:08.101Z,1.05
2022-08-12T13:17:17.494Z,1.20
2022-08-12T13:20:37.767Z,1.85
2022-08-12T13:23:42.045Z,1.15
2022-08-12T13:26:47.320Z,1.38
2022-08-12T13:29:50.872Z,1.23
2022-08-12T13:33:00.360Z,1.05
2022-08-12T13:36:10.161Z,0.90
2022-08-12T13:39:13.478Z,1.30
2022-08-12T13:42:19.022Z,1.00
2022-08-12T13:45:21.635Z,1.17
2022-08-12T13:48:24.007Z,1.23
2022-08-12T13:51:41.290Z,1.00
2022-08-12T13:54:46.443Z,1.13
2022-08-12T13:57:59.949Z,0.90
2022-08-12T14:01:05.955Z,1.52
2022-08-12T14:04:11.596Z,1.05
2022-08-12T14:07:15.911Z,1.15
2022-08-12T14:10:52.437Z,0.93
2022-08-12T14:14:03.630Z,1.10
2022-08-12T14:17:10.897Z,1.10
2022-08-12T14:20:13.277Z,1.20
2022-08-12T14:24:01.864Z,1.05
2022-08-12T14:26:43.475Z,1.10
2022-08-12T14:30:05.391Z,1.30
2022-08-12T14:33:09.103Z,1.30
2022-08-12T14:36:14.318Z,1.30
2022-08-12T14:39:18.583Z,1.98
2022-08-12T14:42:20.913Z,1.88
2022-08-12T14:45:24.508Z,1.30
2022-08-12T14:48:48.796Z,1.45
2022-08-12T14:52:55.783Z,1.30
2022-08-12T14:58:38.103Z,1.38
2022-08-12T15:01:54.531Z,1.30
2022-08-12T15:04:59.764Z,1.38
2022-08-12T15:08:05.024Z,1.20
2022-08-12T15:11:14.443Z,1.05
2022-08-12T15:14:16.729Z,1.25
2022-08-12T15:17:37.381Z,1.00
2022-08-12T15:20:41.448Z,1.38
2022-08-12T15:23:45.519Z,1.15
2022-08-12T15:26:59.009Z,1.10
2022-08-12T15:30:01.418Z,1.10
2022-08-12T15:33:12.976Z,1.15
2022-08-12T15:36:36.487Z,1.08
2022-08-12T15:39:55.329Z,1.60
2022-08-12T15:43:08.089Z,1.25
2022-08-12T15:46:15.406Z,1.05
2022-08-12T15:49:19.068Z,1.08
2022-08-12T15:52:27.545Z,1.15
2022-08-12T15:55:33.691Z,1.23
2022-08-12T15:58:41.141Z,1.40
2022-08-12T16:01:44.146Z,1.10
2022-08-12T16:04:50.317Z,1.20
2022-08-12T16:07:55.416Z,1.20
2022-08-12T16:10:57.730Z,1.10
2022-08-12T16:14:03.259Z,1.02
2022-08-12T16:17:05.712Z,1.33
2022-08-12T16:20:17.993Z,1.35
2022-08-12T16:23:36.597Z,1.20
2022-08-12T16:26:51.035Z,1.10
2022-08-12T16:29:57.555Z,1.45
2022-08-12T16:33:08.831Z,1.00
2022-08-12T16:36:13.513Z,2.53
2022-08-12T16:39:21.401Z,1.33
2022-08-12T16:42:27.933Z,1.00
2022-08-12T16:46:23.211Z,1.10
2022-08-12T16:48:57.206Z,1.20
2022-08-12T16:52:02.011Z,1.30
2022-08-12T16:55:08.928Z,1.60
2022-08-12T16:58:28.281Z,1.03
2022-08-12T17:01:36.774Z,1.15
2022-08-12T17:04:40.022Z,1.58
2022-08-12T17:07:52.083Z,1.27
2022-08-12T17:10:55.261Z,1.20
2022-08-12T17:13:58.404Z,1.30
2022-08-12T17:17:04.544Z,1.00
2022-08-12T17:20:34.862Z,1.15
2022-08-12T17:23:48.382Z,1.05
2022-08-12T17:26:57.442Z,1.33
2022-08-12T17:30:04.975Z,1.20
2022-08-12T17:33:11.398Z,1.40
2022-08-12T17:36:14.549Z,1.35
2022-08-12T17:39:16.856Z,1.42
2022-08-12T17:42:32.675Z,1.10
2022-08-12T17:45:38.657Z,1.23
2022-08-12T17:48:54.953Z,1.20
2022-08-12T17:52:02.772Z,1.05
2022-08-12T17:55:07.046Z,0.90
2022-08-12T17:58:35.829Z,1.40
2022-08-12T18:05:04.988Z,1.40
2022-08-12T18:08:11.051Z,1.40
2022-08-12T18:12:03.650Z,1.40
2022-08-12T18:14:56.404Z,2.25
2022-08-12T18:18:01.684Z,1.48
2022-08-12T18:21:08.529Z,1.27
2022-08-12T18:24:21.991Z,1.10
2022-08-12T18:27:30.028Z,1.65
2022-08-12T18:30:52.206Z,1.85
2022-08-12T18:34:00.627Z,1.42
2022-08-12T18:37:16.406Z,1.45
2022-08-12T18:40:47.458Z,1.50
2022-08-12T18:44:01.093Z,1.30
2022-08-12T18:47:06.386Z,1.70
2022-08-12T18:50:13.376Z,2.28
2022-08-12T18:54:04.917Z,2.25
2022-08-12T18:56:40.618Z,6.13
2022-08-12T19:00:00.028Z,7.95
2022-08-12T19:03:23.394Z,9.63
2022-08-12T19:06:35.613Z,9.95
2022-08-12T19:09:57.727Z,13.07
2022-08-12T19:13:43.635Z,18.38
2022-08-12T19:16:50.611Z,22.30
2022-08-12T19:19:54.312Z,28.70
2022-08-12T19:22:59.620Z,26.83
2022-08-12T19:26:12.481Z,32.88
2022-08-12T19:29:18.198Z,33.10
2022-08-12T19:32:24.074Z,36.20
2022-08-12T19:36:07.082Z,34.78
2022-08-12T19:38:57.487Z,34.22
2022-08-12T19:42:01.909Z,33.92
2022-08-12T19:45:12.079Z,34.83
2022-08-12T19:48:17.449Z,33.58
2022-08-12T19:51:30.925Z,33.55
2022-08-12T19:54:35.848Z,33.38
2022-08-12T19:57:42.607Z,30.60
2022-08-12T20:01:01.801Z,28.67
2022-08-12T20:04:04.359Z,30.17
2022-08-12T20:07:09.193Z,26.30
2022-08-12T20:10:35.650Z,22.38
2022-08-12T20:13:42.198Z,20.25
2022-08-12T20:16:52.806Z,18.83
2022-08-12T20:20:17.747Z,16.70
2022-08-12T20:23:23.245Z,13.45
2022-08-12T20:26:25.888Z,14.98
2022-08-12T20:29:36.561Z,11.45
2022-08-12T20:32:47.829Z,8.23
2022-08-12T20:36:14.130Z,8.00
2022-08-12T20:39:37.163Z,7.85
2022-08-12T20:42:38.849Z,6.50
2022-08-12T20:45:51.164Z,5.75
2022-08-12T20:49:00.872Z,6.65
2022-08-12T20:52:18.350Z,4.90
2022-08-12T20:55:20.837Z,6.63
2022-08-12T20:58:23.310Z,7.80
2022-08-12T21:01:36.586Z,4.18
2022-08-12T21:05:20.371Z,2.65
2022-08-12T21:08:26.335Z,3.05
2022-08-12T21:11:28.759Z,5.97
2022-08-12T21:14:39.760Z,2.80
2022-08-12T21:18:10.959Z,3.08
2022-08-12T21:21:47.132Z,4.15
2022-08-12T21:24:47.602Z,3.20
2022-08-12T21:27:58.587Z,2.67
2022-08-12T21:32:34.685Z,2.22
2022-08-12T21:34:29.686Z,3.47
2022-08-12T21:37:37.333Z,2.10
2022-08-12T21:40:51.784Z,2.17
2022-08-12T21:44:01.536Z,1.85
2022-08-12T21:47:05.994Z,1.77
2022-08-12T21:50:29.135Z,2.22
2022-08-12T21:54:07.946Z,2.80
2022-08-12T21:56:53.987Z,2.10
2022-08-12T21:59:56.446Z,1.33
2022-08-12T22:03:17.640Z,1.15
2022-08-12T22:06:43.307Z,1.08
2022-08-12T22:09:46.748Z,1.73
2022-08-12T22:13:01.126Z,2.28
2022-08-12T22:16:04.190Z,1.15
2022-08-12T22:19:06.978Z,1.00
2022-08-12T22:22:12.292Z,1.30
2022-08-12T22:25:16.713Z,1.10
2022-08-12T22:28:41.079Z,1.20
2022-08-12T22:31:43.447Z,1.05
2022-08-12T22:34:46.126Z,1.58
2022-08-12T22:37:51.010Z,0.82
2022-08-12T22:41:00.724Z,1.00
2022-08-12T22:44:22.792Z,0.80
2022-08-12T22:47:54.054Z,1.20
2022-08-12T22:50:59.072Z,0.98
2022-08-12T22:54:03.310Z,0.98
2022-08-12T22:57:12.453Z,0.85
2022-08-12T23:00:27.030Z,1.10
2022-08-12T23:03:48.678Z,1.02
2022-08-12T23:06:55.262Z,1.20
2022-08-12T23:09:59.036Z,2.10
2022-08-12T23:13:22.572Z,1.10
2022-08-12T23:16:30.856Z,1.00
2022-08-12T23:19:38.410Z,0.95
2022-08-12T23:22:56.128Z,1.40
2022-08-12T23:26:06.938Z,1.75
2022-08-12T23:29:29.922Z,1.30
2022-08-12T23:32:36.505Z,1.20
2022-08-12T23:35:53.872Z,3.17
2022-08-12T23:39:03.882Z,1.38
2022-08-12T23:42:16.792Z,1.50
2022-08-12T23:45:33.809Z,1.45
2022-08-12T23:48:37.359Z,1.20
2022-08-12T23:51:39.907Z,1.27
2022-08-12T23:54:44.928Z,1.80
2022-08-12T23:58:17.462Z,1.20
